sensor_id;sensor_type;location;lat;lon;timestamp;pressure;altitude;pressure_sealevel;temperature;humidity
596;BME280;19946;49.306;11.350;2023-02-12T00:01:40;98209.56;;;1.56;100.00
596;BME280;19946;49.306;11.350;2023-02-12T00:04:41;98152.56;;;1.15;100.00
596;BME280;19946;49.306;11.350;2023-02-12T00:07:41;98218.69;;;1.66;100.00
596;BME280;19946;49.306;11.350;2023-02-12T00:10:42;98201.94;;;1.54;100.00
596;BME280;19946;49.306;11.350;2023-02-12T00:13:43;98233.94;;;1.70;100.00
596;BME280;19946;49.306;11.350;2023-02-12T00:16:43;98218.22;;;1.89;100.00
596;BME280;19946;49.306;11.350;2023-02-12T00:19:44;98154.03;;;1.65;100.00
596;BME280;19946;49.306;11.350;2023-02-12T00:22:44;98185.72;;;1.57;100.00
596;BME280;19946;49.306;11.350;2023-02-12T00:25:44;98214.25;;;1.74;100.00
596;BME280;19946;49.306;11.350;2023-02-12T00:28:45;98099.16;;;1.06;100.00
596;BME280;19946;49.306;11.350;2023-02-12T00:31:46;98182.28;;;1.58;100.00
596;BME280;19946;49.306;11.350;2023-02-12T00:34:47;98220.84;;;1.84;100.00
596;BME280;19946;49.306;11.350;2023-02-12T00:37:49;98172.31;;;1.45;100.00
596;BME280;19946;49.306;11.350;2023-02-12T00:40:49;98125.22;;;1.20;100.00
596;BME280;19946;49.306;11.350;2023-02-12T00:43:50;98058.78;;;0.85;100.00
596;BME280;19946;49.306;11.350;2023-02-12T00:46:51;98230.25;;;1.83;100.00
596;BME280;19946;49.306;11.350;2023-02-12T00:49:51;98142.59;;;1.43;100.00
596;BME280;19946;49.306;11.350;2023-02-12T00:52:51;98158.06;;;1.37;100.00
596;BME280;19946;49.306;11.350;2023-02-12T00:55:52;98171.50;;;1.45;100.00
596;BME280;19946;49.306;11.350;2023-02-12T00:58:52;98206.47;;;1.80;100.00
596;BME280;19946;49.306;11.350;2023-02-12T01:01:53;98116.69;;;1.21;100.00
596;BME280;19946;49.306;11.350;2023-02-12T01:04:54;98155.38;;;1.41;100.00
596;BME280;19946;49.306;11.350;2023-02-12T01:07:57;98244.56;;;1.91;100.00
596;BME280;19946;49.306;11.350;2023-02-12T01:11:00;98229.22;;;1.92;100.00
596;BME280;19946;49.306;11.350;2023-02-12T01:14:02;98231.22;;;1.78;100.00
596;BME280;19946;49.306;11.350;2023-02-12T01:17:03;98127.91;;;1.14;100.00
596;BME280;19946;49.306;11.350;2023-02-12T01:20:05;98154.78;;;1.30;100.00
596;BME280;19946;49.306;11.350;2023-02-12T01:23:06;98175.94;;;1.35;100.00
596;BME280;19946;49.306;11.350;2023-02-12T01:26:08;98238.97;;;1.73;100.00
596;BME280;19946;49.306;11.350;2023-02-12T01:29:09;98238.06;;;1.76;100.00
596;BME280;19946;49.306;11.350;2023-02-12T01:32:10;98227.78;;;1.79;100.00
596;BME280;19946;49.306;11.350;2023-02-12T01:35:11;98165.50;;;1.46;100.00
596;BME280;19946;49.306;11.350;2023-02-12T01:38:13;98173.13;;;1.49;100.00
596;BME280;19946;49.306;11.350;2023-02-12T01:41:16;98173.94;;;1.51;100.00
596;BME280;19946;49.306;11.350;2023-02-12T01:44:23;98153.81;;;1.36;100.00
596;BME280;19946;49.306;11.350;2023-02-12T01:47:24;98195.00;;;1.61;100.00
596;BME280;19946;49.306;11.350;2023-02-12T01:50:25;98226.03;;;1.82;100.00
596;BME280;19946;49.306;11.350;2023-02-12T01:53:30;98200.59;;;1.36;100.00
596;BME280;19946;49.306;11.350;2023-02-12T01:56:32;98133.31;;;0.99;100.00
596;BME280;19946;49.306;11.350;2023-02-12T01:59:35;98214.78;;;1.51;100.00
596;BME280;19946;49.306;11.350;2023-02-12T02:02:36;98153.50;;;1.09;100.00
596;BME280;19946;49.306;11.350;2023-02-12T02:05:58;98142.22;;;0.77;100.00
596;BME280;19946;49.306;11.350;2023-02-12T02:09:00;98216.84;;;1.32;100.00
596;BME280;19946;49.306;11.350;2023-02-12T02:12:01;98156.09;;;1.08;100.00
596;BME280;19946;49.306;11.350;2023-02-12T02:15:21;98202.19;;;1.42;100.00
596;BME280;19946;49.306;11.350;2023-02-12T02:18:28;98227.34;;;1.60;100.00
596;BME280;19946;49.306;11.350;2023-02-12T02:22:12;98026.78;;;0.27;100.00
596;BME280;19946;49.306;11.350;2023-02-12T02:25:32;98245.69;;;1.77;100.00
596;BME280;19946;49.306;11.350;2023-02-12T02:28:47;98250.72;;;1.82;100.00
596;BME280;19946;49.306;11.350;2023-02-12T02:32:11;98229.47;;;1.80;100.00
596;BME280;19946;49.306;11.350;2023-02-12T02:44:59;98217.16;;;1.59;100.00
596;BME280;19946;49.306;11.350;2023-02-12T02:48:17;98228.81;;;1.72;100.00
596;BME280;19946;49.306;11.350;2023-02-12T02:51:27;98197.63;;;1.56;100.00
596;BME280;19946;49.306;11.350;2023-02-12T02:54:39;98233.16;;;1.67;100.00
596;BME280;19946;49.306;11.350;2023-02-12T02:57:45;98174.66;;;1.16;100.00
596;BME280;19946;49.306;11.350;2023-02-12T03:00:54;98141.16;;;0.88;100.00
596;BME280;19946;49.306;11.350;2023-02-12T03:04:11;98241.09;;;1.53;100.00
596;BME280;19946;49.306;11.350;2023-02-12T03:07:26;98150.66;;;1.25;100.00
596;BME280;19946;49.306;11.350;2023-02-12T03:10:35;98146.44;;;1.22;100.00
596;BME280;19946;49.306;11.350;2023-02-12T03:16:58;98085.50;;;0.65;100.00
596;BME280;19946;49.306;11.350;2023-02-12T03:20:07;98236.81;;;1.54;100.00
596;BME280;19946;49.306;11.350;2023-02-12T03:23:16;98246.34;;;1.47;100.00
596;BME280;19946;49.306;11.350;2023-02-12T03:26:22;98232.88;;;1.39;100.00
596;BME280;19946;49.306;11.350;2023-02-12T03:29:23;98183.28;;;1.09;100.00
596;BME280;19946;49.306;11.350;2023-02-12T03:32:45;98181.50;;;1.13;100.00
596;BME280;19946;49.306;11.350;2023-02-12T03:35:59;98178.97;;;1.11;100.00
596;BME280;19946;49.306;11.350;2023-02-12T03:39:11;98209.75;;;1.03;100.00
596;BME280;19946;49.306;11.350;2023-02-12T03:42:16;98240.25;;;1.09;100.00
596;BME280;19946;49.306;11.350;2023-02-12T03:45:33;98258.09;;;1.09;100.00
596;BME280;19946;49.306;11.350;2023-02-12T03:48:44;98202.34;;;0.90;100.00
596;BME280;19946;49.306;11.350;2023-02-12T03:51:50;98249.59;;;1.09;100.00
596;BME280;19946;49.306;11.350;2023-02-12T03:54:50;98258.88;;;1.15;100.00
596;BME280;19946;49.306;11.350;2023-02-12T03:57:56;98197.19;;;0.93;100.00
596;BME280;19946;49.306;11.350;2023-02-12T04:01:00;98169.41;;;0.79;100.00
596;BME280;19946;49.306;11.350;2023-02-12T04:04:06;98195.50;;;0.93;100.00
596;BME280;19946;49.306;11.350;2023-02-12T04:07:07;98176.16;;;0.82;100.00
596;BME280;19946;49.306;11.350;2023-02-12T04:10:08;98267.69;;;1.41;100.00
596;BME280;19946;49.306;11.350;2023-02-12T04:13:18;98195.50;;;0.93;100.00
596;BME280;19946;49.306;11.350;2023-02-12T04:16:46;98272.28;;;1.24;100.00
596;BME280;19946;49.306;11.350;2023-02-12T04:26:16;98278.47;;;1.13;100.00
596;BME280;19946;49.306;11.350;2023-02-12T04:29:46;98249.72;;;1.04;100.00
596;BME280;19946;49.306;11.350;2023-02-12T04:32:53;98188.50;;;0.55;100.00
596;BME280;19946;49.306;11.350;2023-02-12T04:36:11;98188.22;;;0.73;100.00
596;BME280;19946;49.306;11.350;2023-02-12T04:39:18;98136.63;;;0.59;100.00
596;BME280;19946;49.306;11.350;2023-02-12T04:42:19;98210.63;;;1.02;100.00
596;BME280;19946;49.306;11.350;2023-02-12T04:45:25;98219.13;;;1.01;100.00
596;BME280;19946;49.306;11.350;2023-02-12T04:48:26;98283.84;;;1.43;100.00
596;BME280;19946;49.306;11.350;2023-02-12T04:51:27;98224.03;;;1.12;100.00
596;BME280;19946;49.306;11.350;2023-02-12T04:54:27;98285.28;;;1.57;100.00
596;BME280;19946;49.306;11.350;2023-02-12T04:57:27;98276.78;;;1.56;100.00
596;BME280;19946;49.306;11.350;2023-02-12T05:00:28;98203.53;;;1.18;100.00
596;BME280;19946;49.306;11.350;2023-02-12T05:03:28;98294.34;;;1.73;100.00
596;BME280;19946;49.306;11.350;2023-02-12T05:06:29;98296.06;;;1.72;100.00
596;BME280;19946;49.306;11.350;2023-02-12T05:09:29;98145.41;;;0.89;100.00
596;BME280;19946;49.306;11.350;2023-02-12T05:12:30;98287.56;;;1.70;100.00
596;BME280;19946;49.306;11.350;2023-02-12T05:15:30;98295.88;;;1.80;100.00
596;BME280;19946;49.306;11.350;2023-02-12T05:18:31;98217.03;;;1.22;100.00
596;BME280;19946;49.306;11.350;2023-02-12T05:21:32;98244.88;;;1.34;100.00
596;BME280;19946;49.306;11.350;2023-02-12T05:24:32;98291.22;;;1.59;100.00
596;BME280;19946;49.306;11.350;2023-02-12T05:27:32;98292.72;;;1.67;100.00
596;BME280;19946;49.306;11.350;2023-02-12T05:30:32;98217.25;;;1.11;100.00
596;BME280;19946;49.306;11.350;2023-02-12T05:33:33;98231.53;;;1.20;100.00
596;BME280;19946;49.306;11.350;2023-02-12T05:36:33;98300.41;;;1.66;100.00
596;BME280;19946;49.306;11.350;2023-02-12T05:39:34;98195.38;;;0.99;100.00
596;BME280;19946;49.306;11.350;2023-02-12T05:42:34;98174.41;;;0.84;100.00
596;BME280;19946;49.306;11.350;2023-02-12T05:45:34;98287.88;;;1.54;100.00
596;BME280;19946;49.306;11.350;2023-02-12T05:48:38;98313.31;;;1.60;100.00
596;BME280;19946;49.306;11.350;2023-02-12T05:51:38;98290.75;;;1.38;100.00
596;BME280;19946;49.306;11.350;2023-02-12T05:54:39;98320.41;;;1.45;100.00
596;BME280;19946;49.306;11.350;2023-02-12T05:57:39;98236.41;;;0.87;100.00
596;BME280;19946;49.306;11.350;2023-02-12T06:00:39;98320.53;;;1.38;100.00
596;BME280;19946;49.306;11.350;2023-02-12T06:03:40;98310.72;;;1.17;100.00
596;BME280;19946;49.306;11.350;2023-02-12T06:06:41;98249.81;;;0.98;100.00
596;BME280;19946;49.306;11.350;2023-02-12T06:09:41;98306.94;;;1.37;100.00
596;BME280;19946;49.306;11.350;2023-02-12T06:12:42;98241.28;;;0.99;100.00
596;BME280;19946;49.306;11.350;2023-02-12T06:15:42;98318.88;;;1.35;100.00
596;BME280;19946;49.306;11.350;2023-02-12T06:18:42;98285.22;;;1.15;100.00
596;BME280;19946;49.306;11.350;2023-02-12T06:21:43;98294.84;;;1.01;100.00
596;BME280;19946;49.306;11.350;2023-02-12T06:24:44;98320.16;;;1.12;100.00
596;BME280;19946;49.306;11.350;2023-02-12T06:27:44;98234.34;;;0.58;100.00
596;BME280;19946;49.306;11.350;2023-02-12T06:30:45;98339.56;;;1.20;100.00
596;BME280;19946;49.306;11.350;2023-02-12T06:33:45;98333.56;;;1.23;100.00
596;BME280;19946;49.306;11.350;2023-02-12T06:36:46;98336.16;;;1.20;100.00
596;BME280;19946;49.306;11.350;2023-02-12T06:39:46;98337.88;;;1.19;100.00
596;BME280;19946;49.306;11.350;2023-02-12T06:42:47;98273.88;;;0.84;100.00
596;BME280;19946;49.306;11.350;2023-02-12T06:45:47;98345.59;;;1.18;100.00
596;BME280;19946;49.306;11.350;2023-02-12T06:48:47;98277.38;;;0.77;100.00
596;BME280;19946;49.306;11.350;2023-02-12T06:51:49;98338.13;;;1.07;100.00
596;BME280;19946;49.306;11.350;2023-02-12T06:54:51;98303.53;;;0.89;100.00
596;BME280;19946;49.306;11.350;2023-02-12T06:57:52;98277.34;;;0.80;100.00
596;BME280;19946;49.306;11.350;2023-02-12T07:00:52;98240.34;;;0.54;100.00
596;BME280;19946;49.306;11.350;2023-02-12T07:04:00;98349.69;;;1.26;100.00
596;BME280;19946;49.306;11.350;2023-02-12T07:07:03;98296.69;;;0.93;100.00
596;BME280;19946;49.306;11.350;2023-02-12T07:10:03;98262.63;;;0.95;100.00
596;BME280;19946;49.306;11.350;2023-02-12T07:13:04;98371.94;;;1.66;100.00
596;BME280;19946;49.306;11.350;2023-02-12T07:16:06;98370.25;;;1.63;100.00
596;BME280;19946;49.306;11.350;2023-02-12T07:19:06;98354.81;;;1.71;100.00
596;BME280;19946;49.306;11.350;2023-02-12T07:22:07;98318.84;;;1.37;100.00
596;BME280;19946;49.306;11.350;2023-02-12T07:25:07;98365.09;;;1.68;100.00
596;BME280;19946;49.306;11.350;2023-02-12T07:28:07;98358.13;;;1.74;100.00
596;BME280;19946;49.306;11.350;2023-02-12T07:31:12;98379.06;;;1.93;100.00
596;BME280;19946;49.306;11.350;2023-02-12T07:34:13;98195.72;;;0.81;100.00
596;BME280;19946;49.306;11.350;2023-02-12T07:37:13;98311.66;;;1.57;100.00
596;BME280;19946;49.306;11.350;2023-02-12T07:40:13;98245.97;;;1.22;100.00
596;BME280;19946;49.306;11.350;2023-02-12T07:43:14;98314.88;;;1.67;100.00
596;BME280;19946;49.306;11.350;2023-02-12T07:46:18;98380.34;;;2.14;100.00
596;BME280;19946;49.306;11.350;2023-02-12T07:49:20;98372.66;;;2.15;100.00
596;BME280;19946;49.306;11.350;2023-02-12T07:52:21;98379.53;;;2.12;100.00
596;BME280;19946;49.306;11.350;2023-02-12T07:55:22;98335.03;;;1.82;100.00
596;BME280;19946;49.306;11.350;2023-02-12T07:58:23;98388.03;;;2.14;100.00
596;BME280;19946;49.306;11.350;2023-02-12T08:01:29;98319.34;;;1.56;100.00
596;BME280;19946;49.306;11.350;2023-02-12T08:04:30;98320.13;;;1.59;100.00
596;BME280;19946;49.306;11.350;2023-02-12T08:07:30;98317.31;;;1.73;100.00
596;BME280;19946;49.306;11.350;2023-02-12T08:10:30;98264.44;;;1.35;100.00
596;BME280;19946;49.306;11.350;2023-02-12T08:13:30;98380.13;;;2.25;100.00
596;BME280;19946;49.306;11.350;2023-02-12T08:16:35;98377.69;;;2.18;100.00
596;BME280;19946;49.306;11.350;2023-02-12T08:19:36;98285.56;;;1.84;100.00
596;BME280;19946;49.306;11.350;2023-02-12T08:22:36;98358.66;;;2.33;100.00
596;BME280;19946;49.306;11.350;2023-02-12T08:25:36;98381.16;;;2.56;100.00
596;BME280;19946;49.306;11.350;2023-02-12T08:28:39;98384.16;;;2.73;100.00
596;BME280;19946;49.306;11.350;2023-02-12T08:31:44;98370.91;;;2.58;100.00
596;BME280;19946;49.306;11.350;2023-02-12T08:34:45;98387.50;;;2.77;100.00
596;BME280;19946;49.306;11.350;2023-02-12T08:37:45;98383.34;;;2.71;100.00
596;BME280;19946;49.306;11.350;2023-02-12T08:40:45;98375.59;;;2.76;100.00
596;BME280;19946;49.306;11.350;2023-02-12T08:43:46;98390.03;;;2.78;100.00
596;BME280;19946;49.306;11.350;2023-02-12T08:46:49;98373.47;;;2.93;100.00
596;BME280;19946;49.306;11.350;2023-02-12T08:49:49;98326.56;;;2.59;100.00
596;BME280;19946;49.306;11.350;2023-02-12T08:52:50;98388.75;;;2.96;100.00
596;BME280;19946;49.306;11.350;2023-02-12T08:55:50;98325.06;;;2.84;100.00
596;BME280;19946;49.306;11.350;2023-02-12T08:58:50;98335.06;;;2.94;100.00
596;BME280;19946;49.306;11.350;2023-02-12T09:01:51;98343.25;;;2.73;100.00
596;BME280;19946;49.306;11.350;2023-02-12T09:04:52;98379.09;;;3.07;100.00
596;BME280;19946;49.306;11.350;2023-02-12T09:07:52;98323.84;;;2.65;100.00
596;BME280;19946;49.306;11.350;2023-02-12T09:10:53;98340.25;;;2.56;100.00
596;BME280;19946;49.306;11.350;2023-02-12T09:13:53;98376.97;;;2.90;100.00
596;BME280;19946;49.306;11.350;2023-02-12T09:16:53;98308.16;;;2.43;100.00
596;BME280;19946;49.306;11.350;2023-02-12T09:19:54;98378.31;;;3.04;100.00
596;BME280;19946;49.306;11.350;2023-02-12T09:22:54;98346.13;;;2.95;100.00
596;BME280;19946;49.306;11.350;2023-02-12T09:25:54;98310.00;;;2.72;100.00
596;BME280;19946;49.306;11.350;2023-02-12T09:28:55;98360.38;;;3.39;100.00
596;BME280;19946;49.306;11.350;2023-02-12T09:31:55;98262.16;;;2.77;100.00
596;BME280;19946;49.306;11.350;2023-02-12T09:34:56;98315.00;;;3.12;100.00
596;BME280;19946;49.306;11.350;2023-02-12T09:37:57;98369.34;;;3.23;100.00
596;BME280;19946;49.306;11.350;2023-02-12T09:44:21;98383.94;;;3.19;100.00
596;BME280;19946;49.306;11.350;2023-02-12T09:50:35;98378.72;;;3.56;100.00
596;BME280;19946;49.306;11.350;2023-02-12T09:53:42;98370.06;;;3.28;100.00
596;BME280;19946;49.306;11.350;2023-02-12T09:56:53;98345.84;;;3.07;100.00
596;BME280;19946;49.306;11.350;2023-02-12T10:00:02;98388.78;;;3.30;100.00
596;BME280;19946;49.306;11.350;2023-02-12T10:03:12;98314.97;;;3.13;100.00
596;BME280;19946;49.306;11.350;2023-02-12T10:06:18;98356.25;;;3.35;100.00
596;BME280;19946;49.306;11.350;2023-02-12T10:09:49;98385.19;;;3.37;100.00
596;BME280;19946;49.306;11.350;2023-02-12T10:13:04;98315.56;;;2.90;100.00
596;BME280;19946;49.306;11.350;2023-02-12T10:26:39;98408.91;;;3.78;100.00
596;BME280;19946;49.306;11.350;2023-02-12T10:29:43;98402.56;;;3.58;100.00
596;BME280;19946;49.306;11.350;2023-02-12T10:32:45;98316.22;;;2.97;100.00
596;BME280;19946;49.306;11.350;2023-02-12T10:35:50;98343.66;;;3.26;100.00
596;BME280;19946;49.306;11.350;2023-02-12T10:39:24;98399.00;;;3.96;100.00
596;BME280;19946;49.306;11.350;2023-02-12T10:42:37;98357.56;;;3.81;100.00
596;BME280;19946;49.306;11.350;2023-02-12T10:45:40;98296.28;;;3.42;100.00
596;BME280;19946;49.306;11.350;2023-02-12T10:48:44;98407.13;;;4.42;100.00
596;BME280;19946;49.306;11.350;2023-02-12T10:52:03;98314.75;;;3.84;100.00
596;BME280;19946;49.306;11.350;2023-02-12T10:55:29;98390.78;;;4.44;100.00
596;BME280;19946;49.306;11.350;2023-02-12T10:58:31;98345.00;;;4.32;100.00
596;BME280;19946;49.306;11.350;2023-02-12T11:01:32;98393.16;;;4.52;100.00
596;BME280;19946;49.306;11.350;2023-02-12T11:04:33;98267.19;;;3.76;100.00
596;BME280;19946;49.306;11.350;2023-02-12T11:07:46;98313.44;;;4.00;100.00
596;BME280;19946;49.306;11.350;2023-02-12T11:10:47;98375.63;;;4.07;100.00
596;BME280;19946;49.306;11.350;2023-02-12T11:13:59;98420.34;;;4.28;100.00
596;BME280;19946;49.306;11.350;2023-02-12T11:17:01;98330.41;;;4.04;100.00
596;BME280;19946;49.306;11.350;2023-02-12T11:23:26;98358.56;;;4.35;100.00
596;BME280;19946;49.306;11.350;2023-02-12T11:26:27;98386.50;;;4.74;100.00
596;BME280;19946;49.306;11.350;2023-02-12T11:29:28;98401.00;;;4.75;100.00
596;BME280;19946;49.306;11.350;2023-02-12T11:32:28;98384.66;;;4.77;100.00
596;BME280;19946;49.306;11.350;2023-02-12T11:35:29;98228.34;;;3.89;100.00
596;BME280;19946;49.306;11.350;2023-02-12T11:38:38;98304.75;;;4.34;100.00
596;BME280;19946;49.306;11.350;2023-02-12T11:41:40;98360.94;;;4.69;100.00
596;BME280;19946;49.306;11.350;2023-02-12T11:44:47;98308.38;;;4.55;100.00
596;BME280;19946;49.306;11.350;2023-02-12T11:47:48;98329.41;;;4.66;100.00
596;BME280;19946;49.306;11.350;2023-02-12T11:50:51;98364.63;;;4.89;100.00
596;BME280;19946;49.306;11.350;2023-02-12T11:53:56;98365.66;;;4.83;100.00
596;BME280;19946;49.306;11.350;2023-02-12T11:56:57;98311.09;;;4.50;100.00
596;BME280;19946;49.306;11.350;2023-02-12T11:59:59;98362.81;;;4.92;100.00
596;BME280;19946;49.306;11.350;2023-02-12T12:03:09;98379.94;;;5.18;100.00
596;BME280;19946;49.306;11.350;2023-02-12T12:12:50;98230.28;;;4.37;100.00
596;BME280;19946;49.306;11.350;2023-02-12T12:16:02;98301.25;;;4.91;100.00
596;BME280;19946;49.306;11.350;2023-02-12T12:19:32;98363.94;;;5.61;100.00
596;BME280;19946;49.306;11.350;2023-02-12T12:23:10;98281.00;;;5.08;100.00
596;BME280;19946;49.306;11.350;2023-02-12T12:26:23;98308.34;;;5.34;100.00
596;BME280;19946;49.306;11.350;2023-02-12T12:29:41;98284.28;;;5.11;100.00
596;BME280;19946;49.306;11.350;2023-02-12T12:32:46;98267.50;;;5.01;100.00
596;BME280;19946;49.306;11.350;2023-02-12T12:35:59;98337.50;;;5.82;100.00
596;BME280;19946;49.306;11.350;2023-02-12T12:39:32;98370.63;;;5.92;100.00
596;BME280;19946;49.306;11.350;2023-02-12T12:43:00;98365.06;;;5.77;100.00
596;BME280;19946;49.306;11.350;2023-02-12T12:46:33;98209.09;;;4.83;100.00
596;BME280;19946;49.306;11.350;2023-02-12T12:49:54;98350.31;;;5.59;100.00
596;BME280;19946;49.306;11.350;2023-02-12T12:53:11;98296.66;;;5.25;100.00
596;BME280;19946;49.306;11.350;2023-02-12T12:56:33;98337.34;;;5.62;100.00
596;BME280;19946;49.306;11.350;2023-02-12T13:03:16;98365.59;;;5.87;100.00
596;BME280;19946;49.306;11.350;2023-02-12T13:06:31;98354.66;;;5.82;100.00
596;BME280;19946;49.306;11.350;2023-02-12T13:09:49;98328.06;;;6.06;100.00
596;BME280;19946;49.306;11.350;2023-02-12T13:13:08;98280.38;;;5.98;100.00
596;BME280;19946;49.306;11.350;2023-02-12T13:19:41;98352.28;;;6.24;100.00
596;BME280;19946;49.306;11.350;2023-02-12T13:23:04;98289.50;;;6.28;100.00
596;BME280;19946;49.306;11.350;2023-02-12T13:26:32;98335.44;;;6.60;100.00
596;BME280;19946;49.306;11.350;2023-02-12T13:29:45;98345.44;;;6.68;100.00
596;BME280;19946;49.306;11.350;2023-02-12T13:32:54;98276.88;;;6.00;100.00
596;BME280;19946;49.306;11.350;2023-02-12T13:36:01;98358.88;;;6.31;100.00
596;BME280;19946;49.306;11.350;2023-02-12T13:39:26;98361.81;;;6.44;100.00
596;BME280;19946;49.306;11.350;2023-02-12T13:45:43;98360.22;;;6.63;100.00
596;BME280;19946;49.306;11.350;2023-02-12T13:51:54;98298.81;;;6.09;100.00
596;BME280;19946;49.306;11.350;2023-02-12T13:55:22;98351.00;;;6.57;100.00
596;BME280;19946;49.306;11.350;2023-02-12T14:01:43;98352.13;;;6.72;100.00
596;BME280;19946;49.306;11.350;2023-02-12T14:04:54;98350.16;;;6.57;100.00
596;BME280;19946;49.306;11.350;2023-02-12T14:07:58;98305.44;;;6.38;100.00
596;BME280;19946;49.306;11.350;2023-02-12T14:11:04;98256.41;;;6.19;100.00
596;BME280;19946;49.306;11.350;2023-02-12T14:14:06;98323.81;;;6.50;100.00
596;BME280;19946;49.306;11.350;2023-02-12T14:20:36;98341.41;;;6.83;100.00
596;BME280;19946;49.306;11.350;2023-02-12T14:23:40;98270.75;;;6.48;100.00
596;BME280;19946;49.306;11.350;2023-02-12T14:26:41;98235.69;;;6.23;100.00
596;BME280;19946;49.306;11.350;2023-02-12T14:29:59;98207.03;;;5.87;100.00
596;BME280;19946;49.306;11.350;2023-02-12T14:36:14;98343.03;;;6.42;100.00
596;BME280;19946;49.306;11.350;2023-02-12T14:45:29;98343.78;;;5.99;100.00
596;BME280;19946;49.306;11.350;2023-02-12T14:48:49;98180.78;;;5.09;100.00
596;BME280;19946;49.306;11.350;2023-02-12T14:52:04;98301.50;;;5.82;100.00
596;BME280;19946;49.306;11.350;2023-02-12T14:55:24;98329.19;;;5.99;100.00
596;BME280;19946;49.306;11.350;2023-02-12T14:58:27;98295.66;;;5.54;100.00
596;BME280;19946;49.306;11.350;2023-02-12T15:01:32;98313.38;;;5.37;100.00
596;BME280;19946;49.306;11.350;2023-02-12T15:04:36;98181.72;;;4.32;100.00
596;BME280;19946;49.306;11.350;2023-02-12T15:07:43;98304.81;;;5.11;100.00
596;BME280;19946;49.306;11.350;2023-02-12T15:10:49;98288.94;;;5.00;100.00
596;BME280;19946;49.306;11.350;2023-02-12T15:13:53;98323.75;;;5.34;100.00
596;BME280;19946;49.306;11.350;2023-02-12T15:17:18;98214.53;;;4.74;100.00
596;BME280;19946;49.306;11.350;2023-02-12T15:20:22;98237.28;;;4.85;100.00
596;BME280;19946;49.306;11.350;2023-02-12T15:23:35;98292.81;;;5.12;100.00
596;BME280;19946;49.306;11.350;2023-02-12T15:26:48;98325.81;;;5.24;100.00
596;BME280;19946;49.306;11.350;2023-02-12T15:29:51;98173.44;;;4.23;100.00
596;BME280;19946;49.306;11.350;2023-02-12T15:32:55;98220.06;;;4.62;100.00
596;BME280;19946;49.306;11.350;2023-02-12T15:35:56;98209.38;;;4.49;100.00
596;BME280;19946;49.306;11.350;2023-02-12T15:39:03;98286.88;;;4.85;100.00
596;BME280;19946;49.306;11.350;2023-02-12T15:42:04;98245.97;;;4.81;100.00
596;BME280;19946;49.306;11.350;2023-02-12T15:48:18;98300.25;;;5.20;100.00
596;BME280;19946;49.306;11.350;2023-02-12T15:51:32;98316.16;;;5.31;100.00
596;BME280;19946;49.306;11.350;2023-02-12T15:54:34;98307.16;;;5.19;100.00
596;BME280;19946;49.306;11.350;2023-02-12T15:57:35;98269.81;;;4.84;100.00
596;BME280;19946;49.306;11.350;2023-02-12T16:00:40;98195.97;;;4.41;100.00
596;BME280;19946;49.306;11.350;2023-02-12T16:03:42;98283.00;;;4.98;100.00
596;BME280;19946;49.306;11.350;2023-02-12T16:06:42;98320.09;;;4.90;100.00
596;BME280;19946;49.306;11.350;2023-02-12T16:09:43;98296.00;;;4.67;100.00
596;BME280;19946;49.306;11.350;2023-02-12T16:12:45;98317.06;;;4.77;100.00
596;BME280;19946;49.306;11.350;2023-02-12T16:16:02;98307.84;;;4.71;100.00
596;BME280;19946;49.306;11.350;2023-02-12T16:22:08;98311.69;;;4.58;100.00
596;BME280;19946;49.306;11.350;2023-02-12T16:25:19;98282.63;;;4.31;100.00
596;BME280;19946;49.306;11.350;2023-02-12T16:28:28;98292.75;;;4.34;100.00
596;BME280;19946;49.306;11.350;2023-02-12T16:31:29;98313.22;;;4.36;100.00
596;BME280;19946;49.306;11.350;2023-02-12T16:34:35;98304.06;;;4.29;100.00
596;BME280;19946;49.306;11.350;2023-02-12T16:40:36;98303.44;;;4.21;100.00
596;BME280;19946;49.306;11.350;2023-02-12T16:43:36;98305.13;;;4.22;100.00
596;BME280;19946;49.306;11.350;2023-02-12T16:46:48;98328.56;;;4.10;100.00
596;BME280;19946;49.306;11.350;2023-02-12T16:50:00;98323.63;;;4.02;100.00
596;BME280;19946;49.306;11.350;2023-02-12T16:53:07;98294.22;;;3.86;100.00
596;BME280;19946;49.306;11.350;2023-02-12T16:56:11;98256.81;;;3.49;100.00
596;BME280;19946;49.306;11.350;2023-02-12T16:59:12;98332.78;;;3.81;100.00
596;BME280;19946;49.306;11.350;2023-02-12T17:02:13;98255.47;;;3.36;100.00
596;BME280;19946;49.306;11.350;2023-02-12T17:05:15;98264.09;;;3.34;100.00
596;BME280;19946;49.306;11.350;2023-02-12T17:08:20;98324.84;;;3.59;100.00
596;BME280;19946;49.306;11.350;2023-02-12T17:11:21;98273.63;;;2.94;100.00
596;BME280;19946;49.306;11.350;2023-02-12T17:14:23;98322.31;;;3.25;100.00
596;BME280;19946;49.306;11.350;2023-02-12T17:17:23;98315.56;;;2.90;100.00
596;BME280;19946;49.306;11.350;2023-02-12T17:20:23;98324.63;;;2.68;100.00
596;BME280;19946;49.306;11.350;2023-02-12T17:23:24;98262.34;;;2.34;100.00
596;BME280;19946;49.306;11.350;2023-02-12T17:26:24;98268.25;;;1.97;100.00
596;BME280;19946;49.306;11.350;2023-02-12T17:29:25;98311.91;;;1.87;100.00
596;BME280;19946;49.306;11.350;2023-02-12T17:32:26;98348.59;;;2.26;100.00
596;BME280;19946;49.306;11.350;2023-02-12T17:35:26;98351.41;;;2.13;100.00
596;BME280;19946;49.306;11.350;2023-02-12T17:38:26;98341.47;;;1.98;100.00
596;BME280;19946;49.306;11.350;2023-02-12T17:41:27;98348.72;;;2.18;100.00
596;BME280;19946;49.306;11.350;2023-02-12T17:44:27;98353.50;;;1.95;100.00
596;BME280;19946;49.306;11.350;2023-02-12T17:47:27;98366.72;;;1.72;100.00
596;BME280;19946;49.306;11.350;2023-02-12T17:50:28;98308.53;;;1.41;100.00
596;BME280;19946;49.306;11.350;2023-02-12T17:53:29;98310.97;;;1.49;100.00
596;BME280;19946;49.306;11.350;2023-02-12T17:56:29;98337.03;;;1.65;100.00
596;BME280;19946;49.306;11.350;2023-02-12T17:59:29;98356.41;;;1.75;100.00